sensor_id;sensor_type;location;lat;lon;timestamp;pressure;altitude;pressure_sealevel;temperature;humidity
74675;BME280;63200;48.810;12.352;2023-07-29T00:01:35;97106.50;;;17.18;100.00
74675;BME280;63200;48.810;12.352;2023-07-29T00:04:01;97111.19;;;17.18;100.00
74675;BME280;63200;48.810;12.352;2023-07-29T00:06:27;97116.69;;;17.18;100.00
74675;BME280;63200;48.810;12.352;2023-07-29T00:08:52;97107.72;;;17.08;100.00
74675;BME280;63200;48.810;12.352;2023-07-29T00:11:17;97109.88;;;17.03;100.00
74675;BME280;63200;48.810;12.352;2023-07-29T00:13:43;97124.63;;;17.10;100.00
74675;BME280;63200;48.810;12.352;2023-07-29T00:16:08;97118.38;;;17.10;100.00
74675;BME280;63200;48.810;12.352;2023-07-29T00:18:33;97120.31;;;17.09;100.00
74675;BME280;63200;48.810;12.352;2023-07-29T00:20:59;97126.59;;;17.10;100.00
74675;BME280;63200;48.810;12.352;2023-07-29T00:23:24;97129.34;;;17.10;100.00
74675;BME280;63200;48.810;12.352;2023-07-29T00:25:49;97131.28;;;17.09;100.00
74675;BME280;63200;48.810;12.352;2023-07-29T00:28:15;97134.22;;;17.04;100.00
74675;BME280;63200;48.810;12.352;2023-07-29T00:30:40;97135.34;;;17.03;100.00
74675;BME280;63200;48.810;12.352;2023-07-29T00:33:06;97129.72;;;16.99;100.00
74675;BME280;63200;48.810;12.352;2023-07-29T00:35:31;97126.66;;;17.01;100.00
74675;BME280;63200;48.810;12.352;2023-07-29T00:37:56;97109.31;;;16.88;100.00
74675;BME280;63200;48.810;12.352;2023-07-29T00:40:22;97130.66;;;17.04;100.00
74675;BME280;63200;48.810;12.352;2023-07-29T00:42:48;97133.41;;;17.04;100.00
74675;BME280;63200;48.810;12.352;2023-07-29T00:45:14;97134.22;;;17.04;100.00
74675;BME280;63200;48.810;12.352;2023-07-29T00:47:41;97127.28;;;17.07;100.00
74675;BME280;63200;48.810;12.352;2023-07-29T00:50:09;97133.53;;;17.07;100.00
74675;BME280;63200;48.810;12.352;2023-07-29T00:52:35;97083.69;;;16.84;100.00
74675;BME280;63200;48.810;12.352;2023-07-29T00:55:01;97134.47;;;17.11;100.00
74675;BME280;63200;48.810;12.352;2023-07-29T00:57:28;97141.91;;;17.11;100.00
74675;BME280;63200;48.810;12.352;2023-07-29T00:59:54;97131.47;;;17.04;100.00
74675;BME280;63200;48.810;12.352;2023-07-29T01:02:19;97117.34;;;16.93;100.00
74675;BME280;63200;48.810;12.352;2023-07-29T01:04:45;97143.38;;;17.08;100.00
74675;BME280;63200;48.810;12.352;2023-07-29T01:10:30;97127.59;;;17.05;100.00
74675;BME280;63200;48.810;12.352;2023-07-29T01:13:22;97134.22;;;17.04;100.00
74675;BME280;63200;48.810;12.352;2023-07-29T01:18:23;97120.84;;;17.03;100.00
74675;BME280;63200;48.810;12.352;2023-07-29T01:20:51;97124.72;;;17.02;100.00
74675;BME280;63200;48.810;12.352;2023-07-29T01:23:30;97118.41;;;17.01;100.00
74675;BME280;63200;48.810;12.352;2023-07-29T01:25:55;97123.91;;;17.01;100.00
74675;BME280;63200;48.810;12.352;2023-07-29T01:28:21;97126.19;;;16.99;100.00
74675;BME280;63200;48.810;12.352;2023-07-29T01:30:49;97087.78;;;16.78;100.00
74675;BME280;63200;48.810;12.352;2023-07-29T01:33:20;97126.53;;;16.97;100.00
74675;BME280;63200;48.810;12.352;2023-07-29T01:36:06;97083.09;;;16.78;100.00
74675;BME280;63200;48.810;12.352;2023-07-29T01:38:35;97117.69;;;16.92;100.00
74675;BME280;63200;48.810;12.352;2023-07-29T01:41:02;97122.38;;;16.91;100.00
74675;BME280;63200;48.810;12.352;2023-07-29T01:43:31;97125.13;;;16.91;100.00
74675;BME280;63200;48.810;12.352;2023-07-29T01:45:57;97117.34;;;16.93;100.00
74675;BME280;63200;48.810;12.352;2023-07-29T01:48:23;97114.16;;;16.91;100.00
74675;BME280;63200;48.810;12.352;2023-07-29T01:50:49;97120.44;;;16.92;100.00
74675;BME280;63200;48.810;12.352;2023-07-29T01:53:14;97113.03;;;16.92;100.00
74675;BME280;63200;48.810;12.352;2023-07-29T01:55:40;97086.38;;;16.72;100.00
74675;BME280;63200;48.810;12.352;2023-07-29T01:58:05;97118.16;;;16.94;100.00
74675;BME280;63200;48.810;12.352;2023-07-29T02:00:31;97104.47;;;16.94;100.00
74675;BME280;63200;48.810;12.352;2023-07-29T02:02:56;97106.28;;;16.90;100.00
74675;BME280;63200;48.810;12.352;2023-07-29T02:05:21;97103.84;;;16.88;100.00
74675;BME280;63200;48.810;12.352;2023-07-29T02:07:47;97096.94;;;16.82;100.00
74675;BME280;63200;48.810;12.352;2023-07-29T02:10:12;97102.56;;;16.86;100.00
74675;BME280;63200;48.810;12.352;2023-07-29T02:12:37;97105.63;;;16.84;100.00
74675;BME280;63200;48.810;12.352;2023-07-29T02:15:04;97110.31;;;16.83;100.00
74675;BME280;63200;48.810;12.352;2023-07-29T02:17:30;97104.56;;;16.76;100.00
74675;BME280;63200;48.810;12.352;2023-07-29T02:19:55;97100.22;;;16.75;100.00
74675;BME280;63200;48.810;12.352;2023-07-29T02:22:20;97112.19;;;16.71;100.00
74675;BME280;63200;48.810;12.352;2023-07-29T02:24:45;97110.78;;;16.64;100.00
74675;BME280;63200;48.810;12.352;2023-07-29T02:27:11;97100.47;;;16.61;100.00
74675;BME280;63200;48.810;12.352;2023-07-29T02:29:37;97090.88;;;16.55;100.00
74675;BME280;63200;48.810;12.352;2023-07-29T02:32:02;97097.66;;;16.49;100.00
74675;BME280;63200;48.810;12.352;2023-07-29T02:34:28;97093.66;;;16.46;100.00
74675;BME280;63200;48.810;12.352;2023-07-29T02:36:53;97109.34;;;16.37;100.00
74675;BME280;63200;48.810;12.352;2023-07-29T02:39:19;97089.78;;;16.18;100.00
74675;BME280;63200;48.810;12.352;2023-07-29T02:41:45;97100.09;;;16.21;100.00
74675;BME280;63200;48.810;12.352;2023-07-29T02:44:10;97113.84;;;16.12;100.00
74675;BME280;63200;48.810;12.352;2023-07-29T02:46:35;97107.75;;;16.06;100.00
74675;BME280;63200;48.810;12.352;2023-07-29T02:49:04;97112.13;;;15.98;100.00
74675;BME280;63200;48.810;12.352;2023-07-29T02:51:30;97110.38;;;15.94;100.00
74675;BME280;63200;48.810;12.352;2023-07-29T02:53:55;97066.19;;;15.57;100.00
74675;BME280;63200;48.810;12.352;2023-07-29T02:56:21;97112.81;;;15.87;100.00
74675;BME280;63200;48.810;12.352;2023-07-29T02:58:46;97118.63;;;15.85;100.00
74675;BME280;63200;48.810;12.352;2023-07-29T03:01:12;97107.00;;;15.79;100.00
74675;BME280;63200;48.810;12.352;2023-07-29T03:03:37;97105.94;;;15.72;100.00
74675;BME280;63200;48.810;12.352;2023-07-29T03:06:07;97111.72;;;15.70;100.00
74675;BME280;63200;48.810;12.352;2023-07-29T03:08:33;97105.78;;;15.59;100.00
74675;BME280;63200;48.810;12.352;2023-07-29T03:11:05;97096.97;;;15.54;100.00
74675;BME280;63200;48.810;12.352;2023-07-29T03:13:31;97102.31;;;15.41;100.00
74675;BME280;63200;48.810;12.352;2023-07-29T03:16:05;97049.13;;;14.95;100.00
74675;BME280;63200;48.810;12.352;2023-07-29T03:18:30;97101.19;;;15.25;100.00
74675;BME280;63200;48.810;12.352;2023-07-29T03:20:56;97095.44;;;15.18;100.00
74675;BME280;63200;48.810;12.352;2023-07-29T03:23:21;97106.03;;;15.10;100.00
74675;BME280;63200;48.810;12.352;2023-07-29T03:25:49;97094.31;;;15.01;100.00
74675;BME280;63200;48.810;12.352;2023-07-29T03:28:16;97096.75;;;14.94;100.00
74675;BME280;63200;48.810;12.352;2023-07-29T03:30:41;97077.78;;;14.71;100.00
74675;BME280;63200;48.810;12.352;2023-07-29T03:33:07;97095.59;;;14.77;100.00
74675;BME280;63200;48.810;12.352;2023-07-29T03:35:32;97100.59;;;14.75;100.00
74675;BME280;63200;48.810;12.352;2023-07-29T03:37:57;97091.44;;;14.71;100.00
74675;BME280;63200;48.810;12.352;2023-07-29T03:40:23;97094.81;;;14.77;100.00
74675;BME280;63200;48.810;12.352;2023-07-29T03:42:48;97103.00;;;14.77;100.00
74675;BME280;63200;48.810;12.352;2023-07-29T03:45:14;97101.56;;;14.79;100.00
74675;BME280;63200;48.810;12.352;2023-07-29T03:47:40;97094.66;;;14.82;100.00
74675;BME280;63200;48.810;12.352;2023-07-29T03:50:05;97100.25;;;14.86;100.00
74675;BME280;63200;48.810;12.352;2023-07-29T03:52:31;97104.94;;;14.85;100.00
74675;BME280;63200;48.810;12.352;2023-07-29T03:54:56;97111.69;;;14.88;100.00
74675;BME280;63200;48.810;12.352;2023-07-29T03:57:21;97105.09;;;14.89;100.00
74675;BME280;63200;48.810;12.352;2023-07-29T03:59:47;97109.75;;;14.88;100.00
74675;BME280;63200;48.810;12.352;2023-07-29T04:02:12;97104.44;;;14.92;100.00
74675;BME280;63200;48.810;12.352;2023-07-29T04:04:37;97095.78;;;14.90;100.00
74675;BME280;63200;48.810;12.352;2023-07-29T04:07:03;97089.81;;;14.88;100.00
74675;BME280;63200;48.810;12.352;2023-07-29T04:09:28;97093.03;;;14.81;100.00
74675;BME280;63200;48.810;12.352;2023-07-29T04:11:54;97092.25;;;14.72;100.00
74675;BME280;63200;48.810;12.352;2023-07-29T04:14:19;97100.25;;;14.68;100.00
74675;BME280;63200;48.810;12.352;2023-07-29T04:16:44;97096.09;;;14.71;100.00
74675;BME280;63200;48.810;12.352;2023-07-29T04:19:10;97099.78;;;14.75;100.00
74675;BME280;63200;48.810;12.352;2023-07-29T04:21:35;97098.66;;;14.67;100.00
74675;BME280;63200;48.810;12.352;2023-07-29T04:24:01;97084.53;;;14.65;100.00
74675;BME280;63200;48.810;12.352;2023-07-29T04:26:26;97097.06;;;14.66;100.00
74675;BME280;63200;48.810;12.352;2023-07-29T04:28:51;97104.91;;;14.76;100.00
74675;BME280;63200;48.810;12.352;2023-07-29T04:31:16;97102.38;;;14.89;100.00
74675;BME280;63200;48.810;12.352;2023-07-29T04:33:42;97111.53;;;15.02;100.00
74675;BME280;63200;48.810;12.352;2023-07-29T04:36:07;97106.53;;;15.12;100.00
74675;BME280;63200;48.810;12.352;2023-07-29T04:38:33;97113.75;;;15.26;100.00
74675;BME280;63200;48.810;12.352;2023-07-29T04:40:59;97106.81;;;15.37;100.00
74675;BME280;63200;48.810;12.352;2023-07-29T04:43:31;97114.66;;;15.47;100.00
74675;BME280;63200;48.810;12.352;2023-07-29T04:45:57;97108.22;;;15.52;100.00
74675;BME280;63200;48.810;12.352;2023-07-29T04:48:22;97099.69;;;15.54;100.00
74675;BME280;63200;48.810;12.352;2023-07-29T04:50:48;97099.97;;;15.61;100.00
74675;BME280;63200;48.810;12.352;2023-07-29T04:53:13;97100.47;;;15.72;100.00
74675;BME280;63200;48.810;12.352;2023-07-29T04:55:41;97102.53;;;15.84;100.00
74675;BME280;63200;48.810;12.352;2023-07-29T04:58:07;97097.00;;;15.92;100.00
74675;BME280;63200;48.810;12.352;2023-07-29T05:00:32;97099.72;;;16.01;100.00
74675;BME280;63200;48.810;12.352;2023-07-29T05:02:58;97089.84;;;16.09;100.00
74675;BME280;63200;48.810;12.352;2023-07-29T05:05:24;97090.91;;;16.16;100.00
74675;BME280;63200;48.810;12.352;2023-07-29T05:07:49;97091.22;;;16.24;100.00
74675;BME280;63200;48.810;12.352;2023-07-29T05:10:14;97091.19;;;16.32;100.00
74675;BME280;63200;48.810;12.352;2023-07-29T05:12:40;97081.16;;;16.37;100.00
74675;BME280;63200;48.810;12.352;2023-07-29T05:15:06;97082.50;;;16.52;100.00
74675;BME280;63200;48.810;12.352;2023-07-29T05:17:31;97079.63;;;16.69;100.00
74675;BME280;63200;48.810;12.352;2023-07-29T05:19:56;97075.78;;;16.91;100.00
74675;BME280;63200;48.810;12.352;2023-07-29T05:22:22;97071.88;;;17.13;100.00
74675;BME280;63200;48.810;12.352;2023-07-29T05:24:47;97076.03;;;17.32;100.00
74675;BME280;63200;48.810;12.352;2023-07-29T05:27:12;97074.94;;;17.45;100.00
74675;BME280;63200;48.810;12.352;2023-07-29T05:29:38;97074.16;;;17.57;100.00
74675;BME280;63200;48.810;12.352;2023-07-29T05:32:03;97065.91;;;17.57;100.00
74675;BME280;63200;48.810;12.352;2023-07-29T05:34:28;97024.97;;;17.40;100.00
74675;BME280;63200;48.810;12.352;2023-07-29T05:36:54;97062.06;;;17.71;100.00
74675;BME280;63200;48.810;12.352;2023-07-29T05:39:19;97067.31;;;17.88;100.00
74675;BME280;63200;48.810;12.352;2023-07-29T05:41:44;97058.72;;;17.90;100.00
74675;BME280;63200;48.810;12.352;2023-07-29T05:44:10;97032.84;;;17.66;100.00
74675;BME280;63200;48.810;12.352;2023-07-29T05:46:36;97055.66;;;17.91;100.00
74675;BME280;63200;48.810;12.352;2023-07-29T05:49:01;97066.78;;;17.95;100.00
74675;BME280;63200;48.810;12.352;2023-07-29T05:51:28;97062.44;;;18.06;100.00
74675;BME280;63200;48.810;12.352;2023-07-29T05:53:53;97059.69;;;18.31;100.00
74675;BME280;63200;48.810;12.352;2023-07-29T05:56:18;97062.03;;;18.45;100.00
74675;BME280;63200;48.810;12.352;2023-07-29T05:58:44;97066.16;;;18.51;100.00
74675;BME280;63200;48.810;12.352;2023-07-29T06:01:09;97070.38;;;18.61;100.00
74675;BME280;63200;48.810;12.352;2023-07-29T06:03:34;97064.94;;;18.89;100.00
74675;BME280;63200;48.810;12.352;2023-07-29T06:06:00;97065.84;;;19.22;100.00
74675;BME280;63200;48.810;12.352;2023-07-29T06:08:25;97059.47;;;19.50;100.00
74675;BME280;63200;48.810;12.352;2023-07-29T06:10:53;97055.84;;;19.61;100.00
74675;BME280;63200;48.810;12.352;2023-07-29T06:13:18;97068.56;;;19.50;100.00
74675;BME280;63200;48.810;12.352;2023-07-29T06:15:44;97058.41;;;19.38;100.00
74675;BME280;63200;48.810;12.352;2023-07-29T06:18:09;97073.72;;;19.52;100.00
74675;BME280;63200;48.810;12.352;2023-07-29T06:20:34;97083.50;;;19.65;100.00
74675;BME280;63200;48.810;12.352;2023-07-29T06:23:00;97084.78;;;19.84;100.00
74675;BME280;63200;48.810;12.352;2023-07-29T06:25:25;97088.22;;;20.12;100.00
74675;BME280;63200;48.810;12.352;2023-07-29T06:27:50;97082.66;;;20.44;100.00
74675;BME280;63200;48.810;12.352;2023-07-29T06:30:16;97074.13;;;20.50;100.00
74675;BME280;63200;48.810;12.352;2023-07-29T06:32:41;97074.53;;;20.52;100.00
74675;BME280;63200;48.810;12.352;2023-07-29T06:35:07;97067.13;;;20.56;100.00
74675;BME280;63200;48.810;12.352;2023-07-29T06:37:32;97065.72;;;20.62;100.00
74675;BME280;63200;48.810;12.352;2023-07-29T06:39:58;97022.28;;;20.39;100.00
74675;BME280;63200;48.810;12.352;2023-07-29T06:42:23;97074.03;;;20.82;100.00
74675;BME280;63200;48.810;12.352;2023-07-29T06:44:49;97073.19;;;20.97;100.00
74675;BME280;63200;48.810;12.352;2023-07-29T06:47:14;97070.91;;;21.22;100.00
74675;BME280;63200;48.810;12.352;2023-07-29T06:49:39;97067.09;;;21.50;100.00
74675;BME280;63200;48.810;12.352;2023-07-29T06:52:05;97073.63;;;21.61;100.00
74675;BME280;63200;48.810;12.352;2023-07-29T06:54:30;97081.53;;;21.63;100.00
74675;BME280;63200;48.810;12.352;2023-07-29T06:56:55;97083.31;;;21.75;100.00
74675;BME280;63200;48.810;12.352;2023-07-29T06:59:21;97085.97;;;21.68;100.00
74675;BME280;63200;48.810;12.352;2023-07-29T07:01:46;97075.28;;;21.66;100.00
74675;BME280;63200;48.810;12.352;2023-07-29T07:04:12;97076.69;;;21.79;100.00
74675;BME280;63200;48.810;12.352;2023-07-29T07:06:37;97077.94;;;21.82;100.00
74675;BME280;63200;48.810;12.352;2023-07-29T07:09:02;97029.41;;;21.38;100.00
74675;BME280;63200;48.810;12.352;2023-07-29T07:11:28;97074.75;;;21.57;100.00
74675;BME280;63200;48.810;12.352;2023-07-29T07:13:53;97072.75;;;21.57;100.00
74675;BME280;63200;48.810;12.352;2023-07-29T07:16:19;97070.81;;;21.58;100.00
74675;BME280;63200;48.810;12.352;2023-07-29T07:18:44;97064.16;;;21.62;100.00
74675;BME280;63200;48.810;12.352;2023-07-29T07:21:09;97066.56;;;21.64;100.00
74675;BME280;63200;48.810;12.352;2023-07-29T07:23:35;97073.56;;;21.58;100.00
74675;BME280;63200;48.810;12.352;2023-07-29T07:26:01;97091.22;;;21.34;100.00
74675;BME280;63200;48.810;12.352;2023-07-29T07:28:27;97068.38;;;20.94;100.00
74675;BME280;63200;48.810;12.352;2023-07-29T07:30:52;97075.94;;;20.77;100.00
74675;BME280;63200;48.810;12.352;2023-07-29T07:33:17;97070.44;;;20.61;100.00
74675;BME280;63200;48.810;12.352;2023-07-29T07:35:43;97078.72;;;20.61;100.00
74675;BME280;63200;48.810;12.352;2023-07-29T07:38:08;97068.34;;;20.74;100.00
74675;BME280;63200;48.810;12.352;2023-07-29T07:40:35;97068.25;;;20.87;100.00
74675;BME280;63200;48.810;12.352;2023-07-29T07:43:01;97063.50;;;20.87;100.00
74675;BME280;63200;48.810;12.352;2023-07-29T07:45:26;97076.00;;;20.81;100.00
74675;BME280;63200;48.810;12.352;2023-07-29T07:47:52;97055.47;;;20.62;100.00
74675;BME280;63200;48.810;12.352;2023-07-29T07:50:21;97071.66;;;20.80;100.00
74675;BME280;63200;48.810;12.352;2023-07-29T07:52:47;97074.53;;;20.87;100.00
74675;BME280;63200;48.810;12.352;2023-07-29T07:55:12;97081.47;;;20.97;100.00
74675;BME280;63200;48.810;12.352;2023-07-29T07:57:37;97087.09;;;21.24;100.00
74675;BME280;63200;48.810;12.352;2023-07-29T08:00:03;97090.16;;;21.58;100.00
74675;BME280;63200;48.810;12.352;2023-07-29T08:02:29;97089.41;;;21.61;100.00
74675;BME280;63200;48.810;12.352;2023-07-29T08:04:55;97095.97;;;21.33;100.00
74675;BME280;63200;48.810;12.352;2023-07-29T08:07:20;97100.25;;;20.91;100.00
74675;BME280;63200;48.810;12.352;2023-07-29T08:09:45;97106.28;;;20.61;100.00
74675;BME280;63200;48.810;12.352;2023-07-29T08:12:11;97115.66;;;20.41;100.00
74675;BME280;63200;48.810;12.352;2023-07-29T08:14:36;97107.88;;;20.27;100.00
74675;BME280;63200;48.810;12.352;2023-07-29T08:17:01;97118.81;;;20.23;100.00
74675;BME280;63200;48.810;12.352;2023-07-29T08:19:27;97116.66;;;20.33;100.00
74675;BME280;63200;48.810;12.352;2023-07-29T08:21:52;97067.50;;;20.54;100.00
74675;BME280;63200;48.810;12.352;2023-07-29T08:24:18;97102.22;;;21.30;100.00
74675;BME280;63200;48.810;12.352;2023-07-29T08:26:43;97101.75;;;21.47;100.00
74675;BME280;63200;48.810;12.352;2023-07-29T08:29:08;97111.22;;;21.07;100.00
74675;BME280;63200;48.810;12.352;2023-07-29T08:31:33;97119.41;;;20.84;100.00
74675;BME280;63200;48.810;12.352;2023-07-29T08:33:59;97119.25;;;20.61;100.00
74675;BME280;63200;48.810;12.352;2023-07-29T08:36:25;97124.72;;;20.57;100.00
74675;BME280;63200;48.810;12.352;2023-07-29T08:38:50;97134.31;;;20.47;100.00
74675;BME280;63200;48.810;12.352;2023-07-29T08:41:26;97144.59;;;20.15;100.00
74675;BME280;63200;48.810;12.352;2023-07-29T08:44:12;97159.31;;;20.07;100.00
74675;BME280;63200;48.810;12.352;2023-07-29T08:46:41;97172.56;;;19.57;100.00
74675;BME280;63200;48.810;12.352;2023-07-29T08:49:07;97169.50;;;19.46;100.00
74675;BME280;63200;48.810;12.352;2023-07-29T08:51:33;97156.25;;;19.36;100.00
74675;BME280;63200;48.810;12.352;2023-07-29T08:53:59;97118.06;;;19.06;100.00
74675;BME280;63200;48.810;12.352;2023-07-29T08:56:25;97141.38;;;19.24;100.00
74675;BME280;63200;48.810;12.352;2023-07-29T08:58:52;97147.59;;;19.21;100.00
74675;BME280;63200;48.810;12.352;2023-07-29T09:01:18;97154.00;;;19.25;100.00
74675;BME280;63200;48.810;12.352;2023-07-29T09:03:43;97147.00;;;19.28;100.00
74675;BME280;63200;48.810;12.352;2023-07-29T09:06:08;97114.34;;;19.14;100.00
74675;BME280;63200;48.810;12.352;2023-07-29T09:08:34;97128.16;;;19.30;100.00
74675;BME280;63200;48.810;12.352;2023-07-29T09:11:00;97127.84;;;19.31;100.00
74675;BME280;63200;48.810;12.352;2023-07-29T09:13:26;97108.00;;;19.26;100.00
74675;BME280;63200;48.810;12.352;2023-07-29T09:15:54;97091.13;;;19.27;100.00
74675;BME280;63200;48.810;12.352;2023-07-29T09:18:21;97093.09;;;19.27;100.00
74675;BME280;63200;48.810;12.352;2023-07-29T09:20:47;97092.41;;;19.46;100.00
74675;BME280;63200;48.810;12.352;2023-07-29T09:23:13;97095.41;;;19.69;100.00
74675;BME280;63200;48.810;12.352;2023-07-29T09:25:39;97088.16;;;19.93;100.00
74675;BME280;63200;48.810;12.352;2023-07-29T09:28:09;97066.81;;;20.06;100.00
74675;BME280;63200;48.810;12.352;2023-07-29T09:30:36;97073.00;;;20.19;100.00
74675;BME280;63200;48.810;12.352;2023-07-29T09:33:02;97075.66;;;20.31;100.00
74675;BME280;63200;48.810;12.352;2023-07-29T09:35:29;97067.13;;;20.36;100.00
74675;BME280;63200;48.810;12.352;2023-07-29T09:37:55;97072.78;;;20.43;100.00
74675;BME280;63200;48.810;12.352;2023-07-29T09:40:20;97070.22;;;20.51;100.00
74675;BME280;63200;48.810;12.352;2023-07-29T09:42:50;97068.09;;;20.63;100.00
74675;BME280;63200;48.810;12.352;2023-07-29T09:45:26;97067.28;;;20.79;100.00
74675;BME280;63200;48.810;12.352;2023-07-29T09:47:53;97070.75;;;20.95;100.00
74675;BME280;63200;48.810;12.352;2023-07-29T09:50:18;97066.44;;;21.57;100.00
74675;BME280;63200;48.810;12.352;2023-07-29T09:52:44;97067.91;;;22.47;100.00
74675;BME280;63200;48.810;12.352;2023-07-29T09:55:12;97070.03;;;23.18;100.00
74675;BME280;63200;48.810;12.352;2023-07-29T09:57:40;97078.84;;;22.97;100.00
74675;BME280;63200;48.810;12.352;2023-07-29T10:00:06;97080.56;;;23.81;100.00
74675;BME280;63200;48.810;12.352;2023-07-29T10:02:37;97076.34;;;24.50;100.00
74675;BME280;63200;48.810;12.352;2023-07-29T10:05:03;97049.59;;;24.75;100.00
74675;BME280;63200;48.810;12.352;2023-07-29T10:07:29;97044.28;;;25.37;92.59
74675;BME280;63200;48.810;12.352;2023-07-29T10:09:55;97064.19;;;26.00;100.00
74675;BME280;63200;48.810;12.352;2023-07-29T10:12:24;97053.06;;;26.22;79.95
74675;BME280;63200;48.810;12.352;2023-07-29T10:14:50;97030.81;;;25.71;88.94
74675;BME280;63200;48.810;12.352;2023-07-29T10:17:16;97027.81;;;24.85;93.43
74675;BME280;63200;48.810;12.352;2023-07-29T10:19:42;97040.50;;;24.19;95.03
74675;BME280;63200;48.810;12.352;2023-07-29T10:22:09;97031.50;;;23.85;99.54
74675;BME280;63200;48.810;12.352;2023-07-29T10:24:36;97064.00;;;23.46;100.00
74675;BME280;63200;48.810;12.352;2023-07-29T10:27:06;97048.53;;;23.08;100.00
74675;BME280;63200;48.810;12.352;2023-07-29T10:29:38;97088.44;;;22.46;100.00
74675;BME280;63200;48.810;12.352;2023-07-29T10:32:04;97093.47;;;21.47;100.00
74675;BME280;63200;48.810;12.352;2023-07-29T10:34:31;97081.13;;;21.22;100.00
74675;BME280;63200;48.810;12.352;2023-07-29T10:36:57;97089.56;;;21.29;100.00
74675;BME280;63200;48.810;12.352;2023-07-29T10:39:25;97097.72;;;20.83;100.00
74675;BME280;63200;48.810;12.352;2023-07-29T10:41:58;97104.03;;;20.83;100.00
74675;BME280;63200;48.810;12.352;2023-07-29T10:47:11;97092.63;;;21.04;100.00
74675;BME280;63200;48.810;12.352;2023-07-29T10:49:40;97097.63;;;21.38;100.00
74675;BME280;63200;48.810;12.352;2023-07-29T10:52:06;97089.78;;;21.83;100.00
74675;BME280;63200;48.810;12.352;2023-07-29T10:54:45;97094.59;;;21.86;100.00
74675;BME280;63200;48.810;12.352;2023-07-29T10:57:14;97063.75;;;21.84;100.00
74675;BME280;63200;48.810;12.352;2023-07-29T10:59:40;97082.72;;;22.89;100.00
74675;BME280;63200;48.810;12.352;2023-07-29T11:02:17;97094.88;;;24.31;100.00
74675;BME280;63200;48.810;12.352;2023-07-29T11:04:49;97081.34;;;23.77;100.00
74675;BME280;63200;48.810;12.352;2023-07-29T11:10:01;97075.97;;;25.25;100.00
74675;BME280;63200;48.810;12.352;2023-07-29T11:13:06;97073.09;;;25.00;100.00
74675;BME280;63200;48.810;12.352;2023-07-29T11:15:26;97079.97;;;24.02;100.00
74675;BME280;63200;48.810;12.352;2023-07-29T11:17:56;97076.94;;;24.18;100.00
74675;BME280;63200;48.810;12.352;2023-07-29T11:20:23;97078.25;;;24.35;100.00
74675;BME280;63200;48.810;12.352;2023-07-29T11:22:49;97043.59;;;24.07;100.00
74675;BME280;63200;48.810;12.352;2023-07-29T11:25:17;97062.59;;;24.08;100.00
74675;BME280;63200;48.810;12.352;2023-07-29T11:27:43;97063.59;;;23.86;100.00
74675;BME280;63200;48.810;12.352;2023-07-29T11:30:13;97057.63;;;23.84;100.00
74675;BME280;63200;48.810;12.352;2023-07-29T11:32:40;97064.59;;;23.67;100.00
74675;BME280;63200;48.810;12.352;2023-07-29T11:35:17;97067.09;;;23.38;100.00
74675;BME280;63200;48.810;12.352;2023-07-29T11:37:45;97070.19;;;22.68;100.00
74675;BME280;63200;48.810;12.352;2023-07-29T11:40:14;97067.75;;;23.65;100.00
74675;BME280;63200;48.810;12.352;2023-07-29T11:42:40;97068.31;;;24.30;100.00
74675;BME280;63200;48.810;12.352;2023-07-29T11:45:06;97044.00;;;23.68;95.72
74675;BME280;63200;48.810;12.352;2023-07-29T11:47:32;97084.31;;;23.61;100.00
74675;BME280;63200;48.810;12.352;2023-07-29T11:50:03;97080.41;;;22.94;100.00
74675;BME280;63200;48.810;12.352;2023-07-29T11:52:31;97084.94;;;22.49;100.00
74675;BME280;63200;48.810;12.352;2023-07-29T11:54:58;97079.34;;;22.45;100.00
74675;BME280;63200;48.810;12.352;2023-07-29T11:57:23;97079.28;;;22.42;100.00
74675;BME280;63200;48.810;12.352;2023-07-29T11:59:49;97074.81;;;22.34;100.00
74675;BME280;63200;48.810;12.352;2023-07-29T12:02:16;97075.75;;;22.41;100.00
74675;BME280;63200;48.810;12.352;2023-07-29T12:04:44;97069.13;;;22.23;100.00
74675;BME280;63200;48.810;12.352;2023-07-29T12:07:10;97052.69;;;22.34;100.00
74675;BME280;63200;48.810;12.352;2023-07-29T12:09:36;97058.66;;;22.62;100.00
74675;BME280;63200;48.810;12.352;2023-07-29T12:12:03;97054.31;;;23.29;100.00
74675;BME280;63200;48.810;12.352;2023-07-29T12:14:28;97046.38;;;23.66;100.00
74675;BME280;63200;48.810;12.352;2023-07-29T12:16:54;97046.91;;;23.82;100.00
74675;BME280;63200;48.810;12.352;2023-07-29T12:19:20;97029.41;;;24.19;95.97
74675;BME280;63200;48.810;12.352;2023-07-29T12:21:47;97034.41;;;24.58;98.13
74675;BME280;63200;48.810;12.352;2023-07-29T12:24:13;96991.41;;;25.19;86.43
74675;BME280;63200;48.810;12.352;2023-07-29T12:26:39;97035.56;;;25.56;85.09
74675;BME280;63200;48.810;12.352;2023-07-29T12:29:15;97041.38;;;25.08;84.57
74675;BME280;63200;48.810;12.352;2023-07-29T12:31:41;97003.69;;;25.03;88.40
74675;BME280;63200;48.810;12.352;2023-07-29T12:34:07;97020.78;;;25.20;83.20
74675;BME280;63200;48.810;12.352;2023-07-29T12:36:43;97024.72;;;26.85;73.70
74675;BME280;63200;48.810;12.352;2023-07-29T12:39:26;97018.50;;;27.40;64.01
74675;BME280;63200;48.810;12.352;2023-07-29T12:41:53;97020.44;;;27.51;60.98
74675;BME280;63200;48.810;12.352;2023-07-29T12:44:19;97009.72;;;27.46;69.18
74675;BME280;63200;48.810;12.352;2023-07-29T12:46:45;97004.28;;;27.17;61.28
74675;BME280;63200;48.810;12.352;2023-07-29T12:49:11;97020.78;;;27.56;61.75